createdAt,value
2023-04-03T00:02:31.013Z,17.80
2023-04-03T00:05:32.659Z,20.73
2023-04-03T00:08:34.385Z,21.95
2023-04-03T00:11:35.994Z,21.50
2023-04-03T00:14:37.585Z,19.55
2023-04-03T00:17:39.375Z,19.50
2023-04-03T00:20:40.978Z,22.25
2023-04-03T00:23:42.854Z,25.38
2023-04-03T00:26:44.406Z,24.23
2023-04-03T00:29:46.205Z,26.48
2023-04-03T00:32:49.696Z,20.17
2023-04-03T00:35:51.839Z,21.13
2023-04-03T00:38:53.471Z,22.13
2023-04-03T00:41:55.083Z,20.98
2023-04-03T00:44:57.430Z,21.48
2023-04-03T00:48:01.261Z,21.13
2023-04-03T00:51:06.689Z,25.67
2023-04-03T00:54:09.328Z,22.83
2023-04-03T00:57:12.181Z,21.02
2023-04-03T01:00:18.033Z,23.73
2023-04-03T01:03:19.633Z,23.40
2023-04-03T01:06:28.694Z,21.65
2023-04-03T01:09:31.146Z,21.42
2023-04-03T01:12:38.725Z,22.38
2023-04-03T01:15:40.454Z,24.83
2023-04-03T01:18:43.056Z,27.30
2023-04-03T01:22:15.421Z,25.00
2023-04-03T01:25:17.153Z,27.73
2023-04-03T01:28:35.999Z,25.98
2023-04-03T01:31:58.909Z,19.75
2023-04-03T01:35:00.661Z,22.73
2023-04-03T01:38:02.197Z,24.00
2023-04-03T01:41:03.870Z,20.73
2023-04-03T01:44:05.857Z,16.75
2023-04-03T01:47:08.276Z,26.33
2023-04-03T01:50:10.119Z,18.25
2023-04-03T01:53:11.888Z,18.23
2023-04-03T01:56:13.564Z,20.20
2023-04-03T01:59:17.859Z,17.75
2023-04-03T02:02:21.100Z,16.92
2023-04-03T02:05:22.673Z,19.65
2023-04-03T02:08:24.239Z,16.27
2023-04-03T02:11:25.770Z,15.15
2023-04-03T02:14:28.356Z,15.00
2023-04-03T02:17:30.102Z,14.80
2023-04-03T02:20:31.664Z,14.63
2023-04-03T02:23:34.175Z,12.93
2023-04-03T02:26:35.758Z,14.00
2023-04-03T02:29:37.343Z,12.90
2023-04-03T02:32:39.109Z,13.70
2023-04-03T02:35:40.985Z,16.23
2023-04-03T02:38:42.854Z,15.90
2023-04-03T02:41:44.421Z,11.73
2023-04-03T02:44:46.067Z,15.10
2023-04-03T02:47:47.687Z,12.70
2023-04-03T02:50:49.365Z,9.80
2023-04-03T02:53:51.444Z,13.60
2023-04-03T02:56:53.061Z,12.20
2023-04-03T02:59:54.721Z,14.15
2023-04-03T03:02:56.313Z,14.90
2023-04-03T03:06:08.421Z,10.25
2023-04-03T03:09:10.129Z,12.50
2023-04-03T03:12:11.740Z,8.20
2023-04-03T03:15:13.753Z,13.38
2023-04-03T03:18:15.378Z,9.75
2023-04-03T03:21:16.948Z,9.07
2023-04-03T03:24:18.555Z,11.63
2023-04-03T03:27:20.170Z,9.93
2023-04-03T03:30:21.824Z,9.43
2023-04-03T03:33:23.737Z,9.23
2023-04-03T03:36:25.459Z,11.85
2023-04-03T03:39:27.249Z,9.30
2023-04-03T03:42:28.817Z,10.80
2023-04-03T03:45:30.972Z,11.07
2023-04-03T03:48:32.581Z,8.48
2023-04-03T03:51:34.165Z,11.23
2023-04-03T03:54:35.925Z,13.25
2023-04-03T03:57:37.563Z,9.82
2023-04-03T04:00:39.157Z,8.10
2023-04-03T04:03:40.978Z,7.35
2023-04-03T04:06:42.584Z,13.95
2023-04-03T04:09:44.132Z,9.82
2023-04-03T04:12:45.896Z,7.97
2023-04-03T04:15:47.458Z,12.55
2023-04-03T04:18:49.373Z,10.95
2023-04-03T04:21:51.110Z,8.07
2023-04-03T04:24:52.646Z,9.13
2023-04-03T04:27:54.165Z,7.65
2023-04-03T04:30:55.966Z,10.50
2023-04-03T04:33:57.559Z,12.77
2023-04-03T04:36:59.295Z,18.52
2023-04-03T04:40:01.138Z,12.32
2023-04-03T04:43:02.797Z,16.35
2023-04-03T04:46:09.659Z,12.15
2023-04-03T04:49:11.287Z,10.98
2023-04-03T04:52:12.864Z,11.48
2023-04-03T04:55:14.415Z,8.98
2023-04-03T04:58:16.077Z,11.05
2023-04-03T05:01:18.027Z,14.65
2023-04-03T05:04:19.718Z,10.30
2023-04-03T05:07:21.364Z,13.63
2023-04-03T05:10:22.924Z,11.68
2023-04-03T05:13:24.604Z,7.82
2023-04-03T05:16:26.507Z,11.02
2023-04-03T05:19:28.105Z,10.18
2023-04-03T05:22:29.659Z,8.55
2023-04-03T05:25:31.433Z,11.35
2023-04-03T05:28:33.097Z,7.53
2023-04-03T05:31:34.998Z,13.27
2023-04-03T05:34:36.583Z,12.82
2023-04-03T05:37:38.346Z,14.57
2023-04-03T05:40:40.051Z,15.07
2023-04-03T05:43:41.905Z,13.85
2023-04-03T05:46:43.446Z,15.85
2023-04-03T05:49:46.294Z,12.48
2023-04-03T05:52:50.476Z,14.00
2023-04-03T05:55:52.110Z,13.98
2023-04-03T05:58:53.687Z,15.43
2023-04-03T06:01:55.322Z,10.30
2023-04-03T06:04:56.991Z,13.48
2023-04-03T06:07:58.702Z,11.45
2023-04-03T06:11:00.749Z,10.60
2023-04-03T06:14:02.415Z,10.85
2023-04-03T06:17:05.213Z,13.93
2023-04-03T06:20:07.412Z,16.52
2023-04-03T06:23:09.210Z,12.95
2023-04-03T06:26:11.199Z,13.40
2023-04-03T06:29:12.756Z,9.88
2023-04-03T06:32:14.381Z,12.65
2023-04-03T06:35:16.064Z,12.07
2023-04-03T06:38:19.634Z,10.55
2023-04-03T06:41:22.309Z,15.07
2023-04-03T06:44:23.937Z,14.23
2023-04-03T06:47:25.731Z,16.85
2023-04-03T06:50:27.325Z,13.98
2023-04-03T06:53:29.088Z,16.25
2023-04-03T06:56:31.540Z,18.00
2023-04-03T06:59:33.441Z,15.60
2023-04-03T07:02:35.061Z,13.10
2023-04-03T07:05:36.951Z,16.00
2023-04-03T07:08:39.687Z,15.98
2023-04-03T07:11:41.677Z,11.48
2023-04-03T07:14:43.578Z,10.48
2023-04-03T07:17:45.371Z,14.88
2023-04-03T07:20:46.984Z,10.73
2023-04-03T07:26:52.884Z,9.75
2023-04-03T07:29:55.651Z,11.32
2023-04-03T07:32:58.217Z,12.02
2023-04-03T07:35:59.909Z,13.35
2023-04-03T07:39:01.958Z,11.68
2023-04-03T07:42:03.780Z,18.25
2023-04-03T07:45:05.703Z,11.30
2023-04-03T07:48:07.615Z,8.55
2023-04-03T07:51:09.693Z,15.98
2023-04-03T07:54:11.663Z,18.15
2023-04-03T07:57:13.309Z,14.90
2023-04-03T08:00:15.499Z,9.05
2023-04-03T08:03:17.872Z,9.35
2023-04-03T08:06:26.192Z,9.35
2023-04-03T08:09:34.822Z,12.60
2023-04-03T08:12:37.794Z,11.40
2023-04-03T08:15:39.978Z,9.90
2023-04-03T08:18:41.623Z,10.02
2023-04-03T08:21:43.538Z,13.50
2023-04-03T08:24:56.185Z,10.43
2023-04-03T08:28:00.525Z,9.13
2023-04-03T08:31:11.976Z,8.73
2023-04-03T08:34:14.080Z,10.93
2023-04-03T08:37:17.176Z,10.25
2023-04-03T08:40:18.932Z,8.65
2023-04-03T08:43:36.004Z,10.13
2023-04-03T08:46:59.288Z,9.35
2023-04-03T08:50:03.937Z,6.82
2023-04-03T08:53:12.964Z,7.22
2023-04-03T08:56:18.807Z,10.50
2023-04-03T08:59:28.694Z,7.90
2023-04-03T09:02:33.848Z,9.43
2023-04-03T09:05:56.291Z,8.70
2023-04-03T09:09:12.932Z,9.70
2023-04-03T09:12:20.712Z,5.25
2023-04-03T09:15:35.515Z,6.68
2023-04-03T09:18:46.478Z,3.92
2023-04-03T09:21:48.209Z,4.50
2023-04-03T09:24:59.789Z,4.57
2023-04-03T09:28:10.549Z,6.05
2023-04-03T09:34:29.217Z,7.22
2023-04-03T09:37:39.994Z,8.05
2023-04-03T09:40:52.703Z,9.68
2023-04-03T09:43:55.643Z,5.35
2023-04-03T09:46:57.604Z,6.00
2023-04-03T09:50:14.918Z,12.45
2023-04-03T09:53:39.085Z,6.75
2023-04-03T09:56:40.764Z,7.65
2023-04-03T10:00:01.012Z,6.45
2023-04-03T10:03:04.204Z,4.75
2023-04-03T10:06:24.022Z,6.53
2023-04-03T10:09:30.857Z,5.80
2023-04-03T10:12:32.495Z,3.75
2023-04-03T10:15:47.301Z,5.47
2023-04-03T10:19:06.723Z,5.90
2023-04-03T10:22:27.517Z,7.20
2023-04-03T10:29:05.530Z,4.90
2023-04-03T10:32:32.074Z,5.57
2023-04-03T10:35:53.526Z,8.43
2023-04-03T10:39:01.014Z,6.30
2023-04-03T10:42:18.281Z,5.35
2023-04-03T10:45:27.595Z,8.07
2023-04-03T10:49:03.314Z,7.60
2023-04-03T10:52:53.126Z,8.25
2023-04-03T10:56:13.312Z,5.38
2023-04-03T10:59:29.408Z,9.55
2023-04-03T11:02:56.572Z,6.28
2023-04-03T11:06:00.533Z,4.10
2023-04-03T11:09:07.644Z,8.25
2023-04-03T11:12:21.845Z,9.30
2023-04-03T11:15:25.388Z,6.13
2023-04-03T11:18:36.205Z,9.43
2023-04-03T11:25:13.105Z,5.93
2023-04-03T11:28:15.563Z,4.25
2023-04-03T11:31:39.003Z,7.40
2023-04-03T11:34:44.045Z,4.28
2023-04-03T11:37:54.566Z,6.43
2023-04-03T11:40:57.809Z,9.70
2023-04-03T11:44:05.559Z,6.18
2023-04-03T11:47:13.107Z,7.20
2023-04-03T11:50:41.275Z,4.28
2023-04-03T11:53:43.374Z,6.95
2023-04-03T11:56:44.928Z,7.57
2023-04-03T11:59:46.517Z,7.25
2023-04-03T12:02:54.494Z,5.05
2023-04-03T12:06:17.473Z,3.75
2023-04-03T12:09:33.107Z,4.75
2023-04-03T12:12:39.454Z,3.35
2023-04-03T12:15:41.043Z,5.88
2023-04-03T12:18:50.190Z,10.13
2023-04-03T12:21:59.076Z,5.70
2023-04-03T12:25:39.041Z,5.85
2023-04-03T12:28:41.961Z,4.63
2023-04-03T12:32:33.144Z,5.93
2023-04-03T12:36:07.582Z,5.45
2023-04-03T12:39:40.485Z,6.95
2023-04-03T12:43:05.386Z,7.28
2023-04-03T12:46:10.805Z,5.88
2023-04-03T12:49:31.021Z,5.32
2023-04-03T12:52:44.996Z,6.03
2023-04-03T12:55:46.631Z,5.75
2023-04-03T12:58:48.609Z,5.97
2023-04-03T13:01:58.122Z,8.15
2023-04-03T13:05:06.633Z,6.28
2023-04-03T13:08:13.095Z,7.43
2023-04-03T13:11:16.063Z,4.65
2023-04-03T13:14:26.224Z,5.15
2023-04-03T13:17:28.718Z,5.68
2023-04-03T13:20:36.720Z,5.82
2023-04-03T13:23:43.433Z,5.18
2023-04-03T13:26:45.235Z,5.82
2023-04-03T13:29:52.457Z,4.00
2023-04-03T13:32:59.851Z,4.28
2023-04-03T13:36:09.838Z,4.75
2023-04-03T13:39:11.347Z,7.03
2023-04-03T13:42:23.893Z,5.82
2023-04-03T13:45:31.250Z,7.50
2023-04-03T13:48:57.638Z,6.22
2023-04-03T13:52:07.198Z,3.95
2023-04-03T13:55:29.314Z,3.53
2023-04-03T13:58:33.661Z,4.93
2023-04-03T14:01:43.425Z,4.43
2023-04-03T14:04:45.227Z,6.70
2023-04-03T14:07:47.039Z,5.57
2023-04-03T14:10:50.734Z,5.32
2023-04-03T14:13:52.641Z,4.90
2023-04-03T14:16:57.793Z,4.25
2023-04-03T14:19:59.787Z,7.50
2023-04-03T14:23:01.442Z,7.22
2023-04-03T14:26:03.058Z,6.65
2023-04-03T14:29:04.679Z,7.80
2023-04-03T14:32:14.341Z,5.47
2023-04-03T14:35:17.693Z,5.68
2023-04-03T14:38:28.609Z,9.57
2023-04-03T14:41:30.683Z,7.75
2023-04-03T14:44:32.307Z,8.55
2023-04-03T14:47:36.462Z,4.50
2023-04-03T14:50:38.409Z,4.13
2023-04-03T14:53:41.666Z,6.25
2023-04-03T14:56:43.621Z,9.57
2023-04-03T14:59:46.620Z,9.57
2023-04-03T15:02:49.464Z,10.68
2023-04-03T15:05:51.284Z,6.25
2023-04-03T15:08:52.990Z,6.05
2023-04-03T15:11:56.122Z,8.18
2023-04-03T15:15:02.820Z,5.93
2023-04-03T15:18:06.091Z,3.70
2023-04-03T15:21:07.870Z,9.23
2023-04-03T15:24:11.068Z,6.13
2023-04-03T15:27:13.833Z,8.13
2023-04-03T15:30:18.046Z,4.78
2023-04-03T15:33:19.793Z,7.80
2023-04-03T15:36:33.394Z,12.90
2023-04-03T15:39:36.050Z,7.07
2023-04-03T15:42:38.153Z,7.65
2023-04-03T15:45:40.517Z,5.88
2023-04-03T15:48:42.397Z,4.95
2023-04-03T15:51:44.086Z,7.03
2023-04-03T15:54:45.670Z,5.63
2023-04-03T15:57:47.313Z,6.63
2023-04-03T16:00:48.960Z,8.50
2023-04-03T16:03:50.887Z,7.72
2023-04-03T16:06:53.079Z,4.82
2023-04-03T16:09:54.898Z,8.55
2023-04-03T16:12:56.700Z,6.15
2023-04-03T16:15:58.475Z,6.10
2023-04-03T16:19:00.177Z,11.10
2023-04-03T16:22:02.236Z,4.95
2023-04-03T16:25:05.383Z,8.23
2023-04-03T16:28:07.445Z,7.13
2023-04-03T16:31:10.545Z,4.63
2023-04-03T16:34:13.380Z,7.72
2023-04-03T16:37:15.581Z,5.25
2023-04-03T16:40:17.338Z,5.13
2023-04-03T16:43:19.173Z,3.85
2023-04-03T16:46:21.089Z,7.35
2023-04-03T16:49:22.708Z,4.25
2023-04-03T16:52:24.359Z,7.43
2023-04-03T16:55:25.909Z,8.57
2023-04-03T16:58:27.662Z,5.28
2023-04-03T17:01:29.342Z,5.90
2023-04-03T17:04:31.152Z,7.07
2023-04-03T17:07:33.446Z,6.78
2023-04-03T17:10:36.299Z,4.63
2023-04-03T17:13:37.946Z,6.15
2023-04-03T17:16:41.118Z,7.70
2023-04-03T17:19:44.373Z,8.73
2023-04-03T17:22:46.215Z,6.72
2023-04-03T17:25:47.761Z,7.80
2023-04-03T17:28:49.315Z,8.23
2023-04-03T17:31:50.951Z,6.60
2023-04-03T17:34:52.605Z,7.22
2023-04-03T17:37:54.203Z,6.85
2023-04-03T17:40:58.817Z,10.35
2023-04-03T17:44:00.575Z,10.82
2023-04-03T17:47:02.945Z,6.72
2023-04-03T17:50:05.032Z,9.18
2023-04-03T17:53:06.798Z,7.13
2023-04-03T17:56:16.254Z,7.50
2023-04-03T17:59:18.435Z,8.02
2023-04-03T18:02:20.326Z,9.55
2023-04-03T18:05:22.052Z,6.13
2023-04-03T18:08:23.642Z,6.80
2023-04-03T18:11:28.674Z,6.30
2023-04-03T18:14:32.582Z,5.95
2023-04-03T18:17:34.350Z,11.93
2023-04-03T18:20:36.756Z,12.27
2023-04-03T18:23:41.763Z,7.05
2023-04-03T18:26:47.848Z,22.83
2023-04-03T18:29:53.807Z,28.17
2023-04-03T18:32:55.440Z,10.18
2023-04-03T18:35:57.144Z,6.65
2023-04-03T18:38:58.723Z,8.27
2023-04-03T18:42:08.068Z,6.30
2023-04-03T18:45:11.670Z,8.25
2023-04-03T18:48:13.352Z,7.43
2023-04-03T18:51:15.208Z,6.78
2023-04-03T18:54:16.769Z,8.45
2023-04-03T18:57:18.296Z,7.63
2023-04-03T19:00:20.276Z,6.65
2023-04-03T19:03:22.044Z,7.15
2023-04-03T19:06:23.728Z,6.93
2023-04-03T19:09:26.357Z,6.97
2023-04-03T19:12:28.045Z,4.80
2023-04-03T19:15:29.844Z,8.50
2023-04-03T19:18:31.490Z,10.50
2023-04-03T19:21:34.978Z,7.50
2023-04-03T19:24:36.902Z,5.25
2023-04-03T19:27:39.673Z,6.82
2023-04-03T19:30:41.687Z,8.23
2023-04-03T19:33:44.651Z,8.20
2023-04-03T19:36:46.473Z,10.63
2023-04-03T19:39:48.083Z,8.13
2023-04-03T19:42:49.855Z,8.98
2023-04-03T19:45:52.243Z,10.38
2023-04-03T19:48:54.461Z,8.48
2023-04-03T19:51:56.496Z,7.63
2023-04-03T19:54:58.197Z,10.85
2023-04-03T19:58:01.300Z,5.55
2023-04-03T20:01:02.888Z,7.55
2023-04-03T20:04:04.861Z,9.23
2023-04-03T20:07:06.834Z,8.30
2023-04-03T20:10:09.003Z,9.52
2023-04-03T20:13:12.113Z,10.10
2023-04-03T20:16:14.096Z,6.03
2023-04-03T20:19:16.698Z,7.03
2023-04-03T20:22:18.260Z,12.02
2023-04-03T20:25:39.044Z,9.60
2023-04-03T20:28:41.700Z,6.72
2023-04-03T20:31:43.620Z,6.10
2023-04-03T20:34:57.281Z,8.07
2023-04-03T20:38:06.948Z,9.57
2023-04-03T20:41:09.242Z,6.93
2023-04-03T20:44:10.825Z,7.63
2023-04-03T20:47:14.005Z,9.32
2023-04-03T20:50:15.858Z,12.13
2023-04-03T20:53:18.928Z,6.03
2023-04-03T20:56:20.619Z,8.48
2023-04-03T20:59:22.785Z,6.82
2023-04-03T21:02:24.452Z,7.97
2023-04-03T21:05:28.481Z,7.97
2023-04-03T21:09:07.803Z,6.60
2023-04-03T21:12:47.032Z,7.60
2023-04-03T21:16:06.429Z,8.52
2023-04-03T21:19:18.051Z,6.07
2023-04-03T21:22:21.245Z,5.80
2023-04-03T21:25:22.932Z,7.40
2023-04-03T21:28:25.109Z,9.48
2023-04-03T21:31:46.805Z,8.02
2023-04-03T21:34:48.524Z,7.22
2023-04-03T21:37:50.125Z,5.80
2023-04-03T21:40:52.212Z,12.20
2023-04-03T21:43:53.896Z,7.97
2023-04-03T21:46:55.914Z,7.72
2023-04-03T21:49:57.557Z,7.22
2023-04-03T21:52:59.241Z,8.25
2023-04-03T21:56:02.378Z,7.40
2023-04-03T21:59:04.412Z,8.27
2023-04-03T22:02:06.236Z,9.73
2023-04-03T22:05:08.500Z,9.05
2023-04-03T22:08:10.559Z,8.68
2023-04-03T22:11:14.618Z,7.15
2023-04-03T22:14:17.199Z,8.43
2023-04-03T22:17:18.758Z,7.07
2023-04-03T22:20:20.568Z,7.18
2023-04-03T22:23:22.538Z,8.13
2023-04-03T22:26:24.165Z,6.28
2023-04-03T22:29:25.816Z,5.57
2023-04-03T22:32:27.492Z,7.88
2023-04-03T22:35:29.168Z,10.65
2023-04-03T22:38:31.008Z,9.77
2023-04-03T22:41:32.687Z,7.88
2023-04-03T22:44:36.689Z,10.95
2023-04-03T22:47:38.548Z,9.63
2023-04-03T22:50:40.737Z,15.95
2023-04-03T22:53:42.428Z,9.88
2023-04-03T22:56:43.981Z,8.77
2023-04-03T22:59:45.682Z,8.70
2023-04-03T23:02:47.350Z,8.73
2023-04-03T23:05:51.493Z,11.80
2023-04-03T23:08:53.109Z,8.35
2023-04-03T23:11:54.631Z,11.18
2023-04-03T23:14:56.201Z,9.20
2023-04-03T23:17:57.879Z,7.80
2023-04-03T23:21:01.166Z,9.07
2023-04-03T23:24:02.832Z,8.73
2023-04-03T23:27:04.989Z,8.50
2023-04-03T23:30:07.492Z,7.97
2023-04-03T23:33:09.201Z,12.38
2023-04-03T23:36:13.023Z,7.55
2023-04-03T23:39:14.597Z,10.38
2023-04-03T23:42:18.754Z,12.38
2023-04-03T23:45:20.502Z,13.88
2023-04-03T23:48:22.060Z,9.82
2023-04-03T23:51:23.632Z,15.20
2023-04-03T23:54:25.383Z,12.38
2023-04-03T23:57:27.275Z,12.00
